Vandenberg Air Force Base
KVBG : now visible

Airfield :











YOU CAN JOIN US ON...

 
LOGIN :

Register | Disclaimer

   EN    FR    IT 

 









Legend :    VFR   Marginal VFR   IFR   Intensive IFR   Very Intensive IFR
Visi :
Ceiling :
>= 8 km
>= 3000ft
5 to 8 km
1000 to 3000 ft
1500m to 5 km
500 to 1000 ft
800 to 1500m
200 to 500 ft
< 800m
< 200 ft
Symbols :   Thunderstorms  Fog  Heavy snow  Heavy precipitations  Wind > 20 kt






- Airport Elevation : 369 ft


KVBG - Vandenberg Air Force Base

CURRENT METAR :
  • 021728Z AUTO 35009KT 10SM SCT007 SCT360 13/11 A3003 RMK AO2 SLP172

EXPIRED METARs :
  • 021658Z AUTO 01008KT 10SM OVC007 13/11 A3003 RMK AO2 SLP172 T01280109 $
  • 021643Z AUTO 02011KT 10SM BKN007 13/11 A3003 RMK AO2 SLP172
  • 021558Z AUTO 02009KT 10SM OVC006 12/11 A3002 RMK AO2 SLP169 T01200107 $
  • 021528Z AUTO 35011KT 10SM OVC007 12/11 A3002 RMK AO2 SLP169 $
  • 021458Z AUTO 36010KT 10SM OVC005 12/11 A3001 RMK AO2 SLP165 T01180107 51009 $
  • 020258Z AUTO 35010KT 6SM BR OVC006 13/11 A3000 RMK AO2 SLP162 T01270111 56009 $

Expired Forecast.
KZLA FIR / North America



MET'MAP, your aeronautical weather chart ! - Copyright ORBIFLY December 2007 - Disclaimer

ORBIFLY MET'MAP TEAM :

Programming & Development : Alexandra Zaïnal
Original concept : Baudouin d'Aumeries
Technical & hardware support : Manuel Goepfert
Assistance : Marc-Olivier Méhu




SOURCES & CREDITS :

   NOAA       Earth
Advisory